createdAt,value
2022-11-12T00:01:34.620Z,-0.21
2022-11-12T00:04:38.657Z,-0.26
2022-11-12T00:07:42.962Z,-0.25
2022-11-12T00:10:47.927Z,-0.25
2022-11-12T00:13:52.525Z,-0.24
2022-11-12T00:16:56.734Z,-0.21
2022-11-12T00:20:01.253Z,-0.19
2022-11-12T00:23:05.312Z,-0.18
2022-11-12T00:29:32.478Z,-0.15
2022-11-12T00:32:37.792Z,-0.17
2022-11-12T00:35:41.973Z,-0.19
2022-11-12T00:38:46.554Z,-0.20
2022-11-12T00:41:50.777Z,-0.21
2022-11-12T00:44:55.477Z,-0.20
2022-11-12T00:48:00.164Z,-0.22
2022-11-12T00:51:05.793Z,-0.25
2022-11-12T00:54:09.818Z,-0.25
2022-11-12T00:57:14.191Z,-0.28
2022-11-12T01:00:19.555Z,-0.27
2022-11-12T01:03:24.514Z,-0.25
2022-11-12T01:06:28.895Z,-0.24
2022-11-12T01:09:33.155Z,-0.26
2022-11-12T01:12:38.137Z,-0.30
2022-11-12T01:15:43.054Z,-0.33
2022-11-12T01:18:48.400Z,-0.33
2022-11-12T01:21:52.771Z,-0.33
2022-11-12T01:24:56.989Z,-0.32
2022-11-12T01:28:01.243Z,-0.31
2022-11-12T01:31:20.273Z,-0.30
2022-11-12T01:34:24.796Z,-0.33
2022-11-12T01:37:29.306Z,-0.34
2022-11-12T01:40:33.595Z,-0.37
2022-11-12T01:43:38.444Z,-0.36
2022-11-12T01:46:51.592Z,-0.36
2022-11-12T01:50:07.142Z,-0.33
2022-11-12T01:53:14.020Z,-0.33
2022-11-12T01:56:20.561Z,-0.33
2022-11-12T01:59:34.753Z,-0.33
2022-11-12T02:02:40.171Z,-0.35
2022-11-12T02:05:51.452Z,-0.35
2022-11-12T02:08:56.567Z,-0.33
2022-11-12T02:12:01.143Z,-0.30
2022-11-12T02:15:06.025Z,-0.26
2022-11-12T02:18:10.608Z,-0.25
2022-11-12T02:21:18.690Z,-0.24
2022-11-12T02:24:22.599Z,-0.23
2022-11-12T02:27:27.713Z,-0.24
2022-11-12T02:30:44.604Z,-0.24
2022-11-12T02:33:48.972Z,-0.25
2022-11-12T02:36:53.363Z,-0.27
2022-11-12T02:39:57.477Z,-0.27
2022-11-12T02:43:01.953Z,-0.28
2022-11-12T02:46:06.923Z,-0.30
2022-11-12T02:49:11.120Z,-0.31
2022-11-12T02:52:15.672Z,-0.34
2022-11-12T02:55:20.362Z,-0.38
2022-11-12T02:58:24.672Z,-0.40
2022-11-12T03:01:29.362Z,-0.41
2022-11-12T03:04:33.743Z,-0.40
2022-11-12T03:07:38.817Z,-0.40
2022-11-12T03:10:43.437Z,-0.41
2022-11-12T03:13:47.858Z,-0.42
2022-11-12T03:16:52.080Z,-0.41
2022-11-12T03:19:56.406Z,-0.39
2022-11-12T03:23:03.216Z,-0.38
2022-11-12T03:26:07.810Z,-0.39
2022-11-12T03:29:12.111Z,-0.39
2022-11-12T03:32:16.748Z,-0.38
2022-11-12T03:35:21.255Z,-0.38
2022-11-12T03:38:26.227Z,-0.35
2022-11-12T03:41:30.939Z,-0.34
2022-11-12T03:44:35.626Z,-0.30
2022-11-12T03:47:48.139Z,-0.30
2022-11-12T03:50:52.696Z,-0.37
2022-11-12T03:53:57.153Z,-0.40
2022-11-12T03:57:01.507Z,-0.42
2022-11-12T04:00:07.247Z,-0.45
2022-11-12T04:03:11.124Z,-0.45
2022-11-12T04:06:34.026Z,-0.46
2022-11-12T04:09:38.623Z,-0.50
2022-11-12T04:13:01.532Z,-0.56
2022-11-12T04:16:27.769Z,-0.60
2022-11-12T04:19:50.595Z,-0.61
2022-11-12T04:22:54.709Z,-0.66
2022-11-12T04:26:17.739Z,-0.70
2022-11-12T04:29:40.311Z,-0.73
2022-11-12T04:32:53.406Z,-0.75
2022-11-12T04:35:57.833Z,-0.76
2022-11-12T04:39:02.642Z,-0.76
2022-11-12T04:42:32.119Z,-0.75
2022-11-12T04:45:37.048Z,-0.75
2022-11-12T04:48:41.345Z,-0.75
2022-11-12T04:52:03.961Z,-0.73
2022-11-12T04:55:08.757Z,-0.73
2022-11-12T04:58:13.088Z,-0.74
2022-11-12T05:01:17.558Z,-0.74
2022-11-12T05:04:22.145Z,-0.77
2022-11-12T05:07:26.492Z,-0.82
2022-11-12T05:10:31.618Z,-0.88
2022-11-12T05:13:35.852Z,-0.93
2022-11-12T05:16:40.129Z,-0.96
2022-11-12T05:19:44.432Z,-0.95
2022-11-12T05:23:04.980Z,-0.95
2022-11-12T05:26:11.109Z,-0.96
2022-11-12T05:29:15.438Z,-0.95
2022-11-12T05:32:19.843Z,-0.95
2022-11-12T05:35:23.845Z,-0.95
2022-11-12T05:38:28.522Z,-0.95
2022-11-12T05:41:57.979Z,-0.95
2022-11-12T05:44:56.988Z,-0.98
2022-11-12T05:48:01.516Z,-1.02
2022-11-12T05:51:13.097Z,-1.03
2022-11-12T05:54:18.759Z,-1.04
2022-11-12T05:57:23.012Z,-1.04
2022-11-12T06:00:27.581Z,-1.05
2022-11-12T06:03:33.269Z,-1.05
2022-11-12T06:06:38.365Z,-1.07
2022-11-12T06:09:42.638Z,-1.08
2022-11-12T06:12:46.973Z,-1.10
2022-11-12T06:15:55.313Z,-1.11
2022-11-12T06:18:59.733Z,-1.14
2022-11-12T06:22:04.106Z,-1.15
2022-11-12T06:25:08.644Z,-1.17
2022-11-12T06:28:12.965Z,-1.17
2022-11-12T06:31:18.594Z,-1.21
2022-11-12T06:34:23.063Z,-1.20
2022-11-12T06:37:27.705Z,-1.19
2022-11-12T06:40:32.116Z,-1.19
2022-11-12T06:43:37.294Z,-1.15
2022-11-12T06:46:41.424Z,-1.15
2022-11-12T06:49:45.944Z,-1.13
2022-11-12T06:52:50.608Z,-1.11
2022-11-12T06:56:01.994Z,-1.08
2022-11-12T06:59:07.294Z,-1.07
2022-11-12T07:02:13.438Z,-1.08
2022-11-12T07:05:18.117Z,-1.07
2022-11-12T07:08:22.402Z,-1.06
2022-11-12T07:11:26.625Z,-1.03
2022-11-12T07:14:31.090Z,-1.00
2022-11-12T07:17:35.554Z,-0.97
2022-11-12T07:20:39.737Z,-0.91
2022-11-12T07:23:44.158Z,-0.86
2022-11-12T07:26:48.118Z,-0.81
2022-11-12T07:29:52.555Z,-0.74
2022-11-12T07:33:00.290Z,-0.66
2022-11-12T07:36:13.615Z,-0.57
2022-11-12T07:39:18.621Z,-0.49
2022-11-12T07:42:22.826Z,-0.42
2022-11-12T07:45:27.187Z,-0.34
2022-11-12T07:48:33.740Z,-0.26
2022-11-12T07:51:37.685Z,-0.19
2022-11-12T07:54:42.042Z,-0.10
2022-11-12T07:57:46.555Z,0.01
2022-11-12T08:00:52.042Z,0.11
2022-11-12T08:03:57.627Z,0.23
2022-11-12T08:07:02.175Z,0.35
2022-11-12T08:10:07.280Z,0.50
2022-11-12T08:13:11.681Z,0.64
2022-11-12T08:16:16.188Z,0.80
2022-11-12T08:19:20.335Z,0.97
2022-11-12T08:22:24.749Z,1.14
2022-11-12T08:25:29.334Z,1.31
2022-11-12T08:28:35.488Z,1.48
2022-11-12T08:31:40.085Z,1.66
2022-11-12T08:34:44.558Z,1.82
2022-11-12T08:37:49.134Z,1.97
2022-11-12T08:40:53.562Z,2.11
2022-11-12T08:43:58.274Z,2.24
2022-11-12T08:47:02.811Z,2.35
2022-11-12T08:50:07.933Z,2.50
2022-11-12T08:53:13.748Z,2.65
2022-11-12T08:56:18.242Z,2.81
2022-11-12T08:59:22.786Z,2.98
2022-11-12T09:02:27.516Z,3.18
2022-11-12T09:05:31.712Z,3.39
2022-11-12T09:08:36.925Z,3.57
2022-11-12T09:11:41.315Z,3.75
2022-11-12T09:14:46.192Z,3.92
2022-11-12T09:18:02.384Z,4.11
2022-11-12T09:21:10.174Z,4.28
2022-11-12T09:24:14.662Z,4.44
2022-11-12T09:27:18.868Z,4.57
2022-11-12T09:30:23.972Z,4.74
2022-11-12T09:33:32.087Z,4.90
2022-11-12T09:36:39.832Z,5.05
2022-11-12T09:39:44.303Z,5.23
2022-11-12T09:42:53.350Z,5.40
2022-11-12T09:46:26.681Z,5.56
2022-11-12T09:49:34.952Z,5.76
2022-11-12T09:52:42.953Z,5.93
2022-11-12T09:55:49.704Z,6.09
2022-11-12T09:58:54.215Z,6.28
2022-11-12T10:02:17.275Z,6.42
2022-11-12T10:05:24.858Z,6.59
2022-11-12T10:08:53.861Z,6.75
2022-11-12T10:12:32.514Z,6.93
2022-11-12T10:16:01.880Z,7.07
2022-11-12T10:19:18.350Z,7.21
2022-11-12T10:22:25.125Z,7.34
2022-11-12T10:25:32.094Z,7.47
2022-11-12T10:28:45.906Z,7.57
2022-11-12T10:31:50.956Z,7.67
2022-11-12T10:34:55.769Z,7.81
2022-11-12T10:38:07.703Z,7.95
2022-11-12T10:41:38.372Z,8.09
2022-11-12T10:44:43.630Z,8.20
2022-11-12T10:47:47.757Z,8.30
2022-11-12T10:50:52.363Z,8.43
2022-11-12T10:53:57.086Z,8.54
2022-11-12T10:57:21.749Z,8.66
2022-11-12T11:00:25.992Z,8.80
2022-11-12T11:03:45.118Z,8.90
2022-11-12T11:06:58.596Z,9.01
2022-11-12T11:10:03.321Z,9.11
2022-11-12T11:13:22.622Z,9.21
2022-11-12T11:16:29.258Z,9.35
2022-11-12T11:19:38.444Z,9.46
2022-11-12T11:22:45.371Z,9.57
2022-11-12T11:25:52.355Z,9.71
2022-11-12T11:29:29.716Z,9.82
2022-11-12T11:32:43.246Z,9.93
2022-11-12T11:36:15.115Z,10.04
2022-11-12T11:39:48.842Z,10.15
2022-11-12T11:42:52.980Z,10.27
2022-11-12T11:46:12.341Z,10.38
2022-11-12T11:49:25.762Z,10.45
2022-11-12T11:52:52.502Z,10.56
2022-11-12T11:56:10.399Z,10.66
2022-11-12T11:59:28.860Z,10.73
2022-11-12T12:02:53.370Z,10.79
2022-11-12T12:06:20.714Z,10.84
2022-11-12T12:09:42.978Z,10.93
2022-11-12T12:12:50.115Z,11.02
2022-11-12T12:16:13.125Z,11.04
2022-11-12T12:19:27.643Z,11.07
2022-11-12T12:22:45.234Z,11.12
2022-11-12T12:25:54.991Z,11.17
2022-11-12T12:29:33.338Z,11.24
2022-11-12T12:32:43.540Z,11.31
2022-11-12T12:36:12.748Z,11.36
2022-11-12T12:39:47.709Z,11.42
2022-11-12T12:43:02.241Z,11.49
2022-11-12T12:46:11.044Z,11.57
2022-11-12T12:49:27.450Z,11.63
2022-11-12T12:53:01.902Z,11.70
2022-11-12T12:56:27.223Z,11.78
2022-11-12T12:59:31.737Z,11.84
2022-11-12T13:02:38.745Z,11.90
2022-11-12T13:05:43.514Z,11.97
2022-11-12T13:09:00.689Z,12.04
2022-11-12T13:12:05.134Z,12.09
2022-11-12T13:15:16.008Z,12.13
2022-11-12T13:18:38.443Z,12.20
2022-11-12T13:21:44.356Z,12.26
2022-11-12T13:25:12.820Z,12.31
2022-11-12T13:28:16.992Z,12.34
2022-11-12T13:31:28.156Z,12.34
2022-11-12T13:34:33.887Z,12.29
2022-11-12T13:37:47.432Z,12.23
2022-11-12T13:41:04.926Z,12.19
2022-11-12T13:44:15.641Z,12.14
2022-11-12T13:47:24.635Z,12.11
2022-11-12T13:50:28.741Z,12.06
2022-11-12T13:53:33.348Z,12.00
2022-11-12T13:56:37.775Z,11.92
2022-11-12T13:59:42.487Z,11.82
2022-11-12T14:03:08.062Z,11.68
2022-11-12T14:06:37.755Z,11.55
2022-11-12T14:10:08.000Z,11.41
2022-11-12T14:13:44.893Z,11.27
2022-11-12T14:17:26.382Z,11.05
2022-11-12T14:20:40.290Z,10.82
2022-11-12T14:23:49.703Z,10.62
2022-11-12T14:26:54.090Z,10.46
2022-11-12T14:30:24.849Z,10.27
2022-11-12T14:33:31.324Z,10.20
2022-11-12T14:36:38.086Z,10.18
2022-11-12T14:39:43.222Z,10.09
2022-11-12T14:42:47.863Z,9.94
2022-11-12T14:45:54.303Z,9.85
2022-11-12T14:49:03.349Z,9.69
2022-11-12T14:52:09.941Z,9.47
2022-11-12T14:55:25.808Z,9.30
2022-11-12T14:58:31.109Z,9.18
2022-11-12T15:05:13.222Z,8.96
2022-11-12T15:08:33.350Z,8.77
2022-11-12T15:11:49.190Z,8.56
2022-11-12T15:15:03.343Z,8.35
2022-11-12T15:18:17.624Z,8.10
2022-11-12T15:21:28.171Z,7.86
2022-11-12T15:24:37.575Z,7.61
2022-11-12T15:27:42.943Z,7.39
2022-11-12T15:31:07.707Z,7.12
2022-11-12T15:34:33.488Z,6.93
2022-11-12T15:37:42.972Z,6.79
2022-11-12T15:40:57.319Z,6.66
2022-11-12T15:44:02.043Z,6.57
2022-11-12T15:47:08.751Z,6.48
2022-11-12T15:50:24.478Z,6.31
2022-11-12T15:53:30.644Z,6.13
2022-11-12T15:56:35.282Z,5.98
2022-11-12T15:59:40.596Z,5.85
2022-11-12T16:02:46.850Z,5.74
2022-11-12T16:05:50.967Z,5.65
2022-11-12T16:08:55.400Z,5.56
2022-11-12T16:12:00.706Z,5.46
2022-11-12T16:15:14.174Z,5.36
2022-11-12T16:18:19.053Z,5.26
2022-11-12T16:21:23.499Z,5.17
2022-11-12T16:24:28.038Z,5.05
2022-11-12T16:27:32.472Z,4.93
2022-11-12T16:30:36.543Z,4.71
2022-11-12T16:33:40.826Z,4.50
2022-11-12T16:36:47.589Z,4.38
2022-11-12T16:39:52.014Z,4.30
2022-11-12T16:42:56.817Z,4.23
2022-11-12T16:46:00.818Z,4.13
2022-11-12T16:49:05.078Z,4.01
2022-11-12T16:52:10.656Z,3.94
2022-11-12T16:55:15.508Z,3.87
2022-11-12T16:58:19.565Z,3.79
2022-11-12T17:01:27.872Z,3.71
2022-11-12T17:04:32.122Z,3.62
2022-11-12T17:07:36.308Z,3.52
2022-11-12T17:10:40.812Z,3.47
2022-11-12T17:13:45.032Z,3.41
2022-11-12T17:16:49.626Z,3.36
2022-11-12T17:19:53.685Z,3.30
2022-11-12T17:22:58.247Z,3.23
2022-11-12T17:26:05.328Z,3.16
2022-11-12T17:29:09.899Z,3.07
2022-11-12T17:32:14.251Z,2.95
2022-11-12T17:35:18.621Z,2.83
2022-11-12T17:38:23.012Z,2.72
2022-11-12T17:41:30.965Z,2.63
2022-11-12T17:44:35.263Z,2.55
2022-11-12T17:47:40.710Z,2.40
2022-11-12T17:50:45.110Z,2.28
2022-11-12T17:53:50.017Z,2.19
2022-11-12T17:56:53.953Z,2.15
2022-11-12T17:59:58.552Z,2.13
2022-11-12T18:03:02.759Z,2.05
2022-11-12T18:06:12.328Z,2.02
2022-11-12T18:09:16.861Z,1.99
2022-11-12T18:12:21.443Z,1.98
2022-11-12T18:15:25.612Z,1.99
2022-11-12T18:18:30.322Z,1.92
2022-11-12T18:21:35.036Z,1.84
2022-11-12T18:24:39.495Z,1.79
2022-11-12T18:27:44.647Z,1.68
2022-11-12T18:30:49.187Z,1.60
2022-11-12T18:33:55.127Z,1.57
2022-11-12T18:36:59.486Z,1.53
2022-11-12T18:40:04.531Z,1.45
2022-11-12T18:43:09.145Z,1.38
2022-11-12T18:46:13.400Z,1.30
2022-11-12T18:49:17.804Z,1.22
2022-11-12T18:52:22.183Z,1.16
2022-11-12T18:55:26.442Z,1.08
2022-11-12T18:58:34.873Z,1.04
2022-11-12T19:01:40.203Z,1.02
2022-11-12T19:04:45.608Z,1.00
2022-11-12T19:07:49.952Z,0.99
2022-11-12T19:11:06.345Z,1.00
2022-11-12T19:14:11.330Z,0.99
2022-11-12T19:17:15.655Z,0.98
2022-11-12T19:20:20.103Z,0.95
2022-11-12T19:23:24.861Z,0.93
2022-11-12T19:26:29.735Z,0.90
2022-11-12T19:29:34.304Z,0.80
2022-11-12T19:32:38.640Z,0.70
2022-11-12T19:35:42.958Z,0.66
2022-11-12T19:38:47.350Z,0.63
2022-11-12T19:41:51.904Z,0.64
2022-11-12T19:44:56.480Z,0.63
2022-11-12T19:48:01.014Z,0.53
2022-11-12T19:51:07.574Z,0.42
2022-11-12T19:54:12.109Z,0.40
2022-11-12T19:57:16.549Z,0.37
2022-11-12T20:00:20.974Z,0.36
2022-11-12T20:03:26.543Z,0.28
2022-11-12T20:06:31.390Z,0.16
2022-11-12T20:09:35.738Z,0.02
2022-11-12T20:12:40.199Z,-0.03
2022-11-12T20:15:44.724Z,-0.06
2022-11-12T20:18:53.426Z,-0.08
2022-11-12T20:21:57.903Z,-0.14
2022-11-12T20:25:02.460Z,-0.23
2022-11-12T20:28:07.494Z,-0.27
2022-11-12T20:31:20.520Z,-0.30
2022-11-12T20:34:25.132Z,-0.30
2022-11-12T20:37:30.588Z,-0.35
2022-11-12T20:40:35.082Z,-0.39
2022-11-12T20:43:39.495Z,-0.41
2022-11-12T20:46:43.945Z,-0.41
2022-11-12T20:49:48.247Z,-0.39
2022-11-12T20:52:52.776Z,-0.32
2022-11-12T20:56:04.830Z,-0.31
2022-11-12T20:59:09.449Z,-0.28
2022-11-12T21:02:13.929Z,-0.25
2022-11-12T21:05:18.624Z,-0.21
2022-11-12T21:08:22.911Z,-0.19
2022-11-12T21:11:27.377Z,-0.21
2022-11-12T21:14:31.628Z,-0.25
2022-11-12T21:17:35.858Z,-0.28
2022-11-12T21:20:40.235Z,-0.28
2022-11-12T21:23:44.956Z,-0.26
2022-11-12T21:26:49.428Z,-0.22
2022-11-12T21:29:53.772Z,-0.17
2022-11-12T21:32:58.446Z,-0.12
2022-11-12T21:36:04.308Z,-0.09
2022-11-12T21:39:10.149Z,-0.05
2022-11-12T21:42:14.275Z,-0.03
2022-11-12T21:45:18.572Z,-0.05
2022-11-12T21:48:23.153Z,-0.06
2022-11-12T21:51:29.972Z,-0.07
2022-11-12T21:54:35.555Z,-0.04
2022-11-12T21:57:39.441Z,-0.05
2022-11-12T22:00:43.840Z,-0.03
2022-11-12T22:03:50.476Z,-0.03
2022-11-12T22:06:55.064Z,-0.02
2022-11-12T22:09:59.257Z,-0.01
2022-11-12T22:13:25.932Z,-0.01
2022-11-12T22:16:31.108Z,0.01
2022-11-12T22:19:35.625Z,0.02
2022-11-12T22:22:40.107Z,0.04
2022-11-12T22:25:44.725Z,0.06
2022-11-12T22:28:49.479Z,0.07
2022-11-12T22:31:54.242Z,0.07
2022-11-12T22:34:58.725Z,0.06
2022-11-12T22:38:03.209Z,0.05
2022-11-12T22:41:18.717Z,0.03
2022-11-12T22:44:22.734Z,-0.02
2022-11-12T22:47:27.171Z,-0.04
2022-11-12T22:50:31.754Z,-0.05
2022-11-12T22:53:36.346Z,-0.06
2022-11-12T22:56:40.317Z,-0.04
2022-11-12T22:59:44.920Z,-0.03
2022-11-12T23:02:49.049Z,-0.05
2022-11-12T23:05:58.103Z,-0.09
2022-11-12T23:09:05.474Z,-0.09
2022-11-12T23:12:10.945Z,-0.13
2022-11-12T23:15:17.590Z,-0.20
2022-11-12T23:18:22.720Z,-0.24
2022-11-12T23:21:30.910Z,-0.22
2022-11-12T23:24:35.655Z,-0.20
2022-11-12T23:27:40.752Z,-0.18
2022-11-12T23:30:50.558Z,-0.18
2022-11-12T23:33:57.705Z,-0.21
2022-11-12T23:37:02.478Z,-0.22
2022-11-12T23:40:07.679Z,-0.23
2022-11-12T23:43:12.579Z,-0.24
2022-11-12T23:46:17.057Z,-0.26
2022-11-12T23:49:20.985Z,-0.26
2022-11-12T23:52:26.395Z,-0.25
2022-11-12T23:55:32.827Z,-0.24
2022-11-12T23:58:41.856Z,-0.24
